Time;durP1;ratioP1;P1;durP2;ratioP2;P2;SDS_P1;SDS_P2;PMS_P1;PMS_P2;Temp;Humidity;BMP_temperature;BMP_pressure;BME280_temperature;BME280_humidity;BME280_pressure;Samples;Min_cycle;Max_cycle;Signal;HPM_P1;HPM_P2
2023/11/20 00:19:11;;;;;;;23.10;16.50;;;1.60;99.90;;;;;;5919964;23;20655;-85
2023/11/20 00:39:55;;;;;;;25.73;15.87;;;1.60;99.90;;;;;;5932556;23;20206;-88
2023/11/20 01:05:16;;;;;;;26.57;15.70;;;1.70;99.90;;;;;;5809137;24;20202;-85
2023/11/20 01:40:44;;;;;;;22.37;14.40;;;1.80;99.90;;;;;;6050848;23;20196;-88
2023/11/20 02:10:35;;;;;;;24.77;14.60;;;1.80;99.90;;;;;;5872559;23;20273;-87
2023/11/20 02:41:09;;;;;;;25.70;13.67;;;1.80;99.90;;;;;;5990831;23;20604;-87
2023/11/20 04:07:27;;;;;;;33.30;18.80;;;1.80;99.90;;;;;;5990907;23;20678;-86
2023/11/20 04:32:56;;;;;;;33.60;17.40;;;1.80;99.90;;;;;;5952298;23;20555;-87
2023/11/20 04:53:08;;;;;;;37.30;17.43;;;1.70;99.90;;;;;;5748225;24;20173;-87
2023/11/20 05:48:34;;;;;;;29.10;16.87;;;1.90;99.90;;;;;;5918502;23;20601;-87
2023/11/20 06:04:29;;;;;;;23.30;14.67;;;1.70;99.90;;;;;;5980908;23;20568;-85
2023/11/20 06:34:53;;;;;;;25.33;12.97;;;1.80;99.90;;;;;;5881643;24;20228;-85
2023/11/20 07:30:23;;;;;;;16.07;9.67;;;2.10;99.90;;;;;;5844056;24;20207;-83
2023/11/20 07:50:16;;;;;;;15.97;10.47;;;2.20;99.90;;;;;;5847204;24;20538;-85
2023/11/20 08:16:13;;;;;;;15.87;10.53;;;2.30;99.90;;;;;;5961764;23;20575;-84
2023/11/20 08:51:25;;;;;;;13.77;10.57;;;2.70;99.90;;;;;;5985111;23;20600;-85
2023/11/20 09:57:45;;;;;;;18.87;12.20;;;2.90;99.90;;;;;;6134120;23;20479;-84
2023/11/20 10:02:10;;;;;;;16.97;11.87;;;2.90;99.90;;;;;;6011007;23;20508;-81
2023/11/20 10:27:44;;;;;;;17.43;11.90;;;3.20;99.90;;;;;;5859629;23;20250;-84
2023/11/20 10:57:56;;;;;;;13.33;8.90;;;2.90;99.90;;;;;;5815942;24;20572;-84
2023/11/20 11:23:15;;;;;;;14.20;8.53;;;2.80;99.90;;;;;;5729300;24;20355;-82
2023/11/20 11:39:13;;;;;;;14.03;10.27;;;2.80;99.90;;;;;;5844083;23;20409;-86
2023/11/20 11:43:36;;;;;;;16.27;10.73;;;2.80;99.90;;;;;;5798169;23;20517;-82
2023/11/20 12:09:17;;;;;;;23.03;13.33;;;2.90;99.90;;;;;;5985461;23;20162;-83
2023/11/20 12:34:49;;;;;;;16.80;12.73;;;3.10;99.90;;;;;;5878619;23;20193;-84
2023/11/20 13:04:42;;;;;;;22.80;13.03;;;3.10;99.90;;;;;;5876515;23;20176;-84
2023/11/20 13:25:11;;;;;;;19.87;12.40;;;2.90;99.90;;;;;;5839970;23;20436;-83
2023/11/20 13:45:32;;;;;;;25.13;12.73;;;2.80;99.90;;;;;;5804417;23;20737;-84
2023/11/20 14:05:47;;;;;;;21.37;9.80;;;2.80;99.90;;;;;;6042840;23;20211;-84
2023/11/20 15:31:55;;;;;;;8.17;5.73;;;2.20;99.90;;;;;;6187874;23;20578;-86
2023/11/20 15:57:35;;;;;;;13.27;9.10;;;2.10;99.90;;;;;;6019143;23;20718;-86
2023/11/20 16:27:51;;;;;;;19.80;12.37;;;1.90;99.90;;;;;;5772038;24;20228;-88
2023/11/20 16:57:46;;;;;;;24.40;15.20;;;1.80;99.90;;;;;;6159247;22;21648;31
2023/11/20 17:28:49;;;;;;;16.27;12.20;;;1.60;99.90;;;;;;5953719;23;20518;-85
2023/11/20 17:33:09;;;;;;;18.83;13.20;;;1.60;99.90;;;;;;5937734;23;20468;-85
2023/11/20 17:54:10;;;;;;;19.20;12.70;;;1.60;99.90;;;;;;5962805;23;20340;-83
2023/11/20 18:13:54;;;;;;;23.70;14.13;;;1.50;99.90;;;;;;6165347;22;20204;-85
2023/11/20 18:29:02;;;;;;;21.23;13.63;;;1.50;99.90;;;;;;6185465;22;20554;-83
2023/11/20 18:54:56;;;;;;;28.13;16.07;;;1.30;99.90;;;;;;6004718;23;20439;-85
2023/11/20 19:25:28;;;;;;;19.17;12.10;;;1.40;99.90;;;;;;5734830;24;20225;-85
2023/11/20 19:29:52;;;;;;;21.47;13.90;;;1.40;99.90;;;;;;5707975;24;20560;-85
2023/11/20 19:50:49;;;;;;;17.33;11.57;;;1.30;99.90;;;;;;5881944;23;20265;-86
2023/11/20 20:10:57;;;;;;;21.30;14.40;;;1.30;99.90;;;;;;5853432;24;20603;-84
2023/11/20 20:41:29;;;;;;;22.53;15.17;;;1.30;99.90;;;;;;5754223;24;20238;-87
2023/11/20 21:01:33;;;;;;;22.03;14.77;;;1.30;99.90;;;;;;5720606;24;20212;-88
2023/11/20 21:37:05;;;;;;;11.10;9.27;;;1.10;99.90;;;;;;6006340;23;20212;-88
2023/11/20 22:23:02;;;;;;;18.47;12.53;;;1.10;99.90;;;;;;5770652;24;20272;-87
2023/11/20 23:49:01;;;;;;;36.17;19.83;;;0.60;99.90;;;;;;5665384;24;20183;-86
